Albion, Nebraska
Current Conditions -  °F | °C
As of 9:15 PM on Saturday 20 Dec 2014 (Local Time) from KBVN Reporting Station
Moderate Fog Moderate Fog  
Wind Chill: 23°   Ceiling: 100
Heat Index: 32°   Visibility: 0.5mi
Dew Point: 30°   Wind: 10mph
Humidity: 94%   Direction: 170°S
Pressure: 29.96"   Gusts: NA
Location:  41.69°N, 98°W
Report Text: KBVN 210315Z AUTO 17009KT 1/2SM FG OVC001 00/M01 A2996 RMK AO2 T10011010
Loading
Personal Weather Stations






























Interactive Weather Map New forecast layout! Learn more

10-Day Weather Forecast

Advertisements
Track Severe Weather on mobile